sensor_id;sensor_type;location;lat;lon;timestamp;pressure;altitude;pressure_sealevel;temperature;humidity
10652;BME280;5374;42.742;23.266;2022-11-15T00:01:47;96071.41;;;3.17;100.00
10652;BME280;5374;42.742;23.266;2022-11-15T00:04:36;96078.16;;;3.26;100.00
10652;BME280;5374;42.742;23.266;2022-11-15T00:07:23;96074.66;;;3.19;100.00
10652;BME280;5374;42.742;23.266;2022-11-15T00:10:10;96087.41;;;3.22;100.00
10652;BME280;5374;42.742;23.266;2022-11-15T00:12:58;96084.16;;;3.20;100.00
10652;BME280;5374;42.742;23.266;2022-11-15T00:15:45;96078.09;;;3.20;100.00
10652;BME280;5374;42.742;23.266;2022-11-15T00:18:32;96075.06;;;3.16;100.00
10652;BME280;5374;42.742;23.266;2022-11-15T00:21:21;96053.94;;;3.03;100.00
10652;BME280;5374;42.742;23.266;2022-11-15T00:24:08;96069.38;;;3.13;100.00
10652;BME280;5374;42.742;23.266;2022-11-15T00:26:55;96063.25;;;3.05;100.00
10652;BME280;5374;42.742;23.266;2022-11-15T00:29:42;96043.63;;;3.01;100.00
10652;BME280;5374;42.742;23.266;2022-11-15T00:32:31;96045.56;;;2.93;100.00
10652;BME280;5374;42.742;23.266;2022-11-15T00:35:19;96062.16;;;3.00;100.00
10652;BME280;5374;42.742;23.266;2022-11-15T00:38:07;96063.78;;;3.01;100.00
10652;BME280;5374;42.742;23.266;2022-11-15T00:40:55;96066.78;;;2.98;100.00
10652;BME280;5374;42.742;23.266;2022-11-15T00:43:42;96062.34;;;2.98;100.00
10652;BME280;5374;42.742;23.266;2022-11-15T00:46:29;96049.31;;;2.84;100.00
10652;BME280;5374;42.742;23.266;2022-11-15T00:49:16;96059.28;;;2.95;100.00
10652;BME280;5374;42.742;23.266;2022-11-15T00:52:03;96062.72;;;2.95;100.00
10652;BME280;5374;42.742;23.266;2022-11-15T00:54:52;96058.28;;;2.96;100.00
10652;BME280;5374;42.742;23.266;2022-11-15T00:57:39;96059.09;;;2.96;100.00
10652;BME280;5374;42.742;23.266;2022-11-15T01:00:26;96058.28;;;2.96;100.00
10652;BME280;5374;42.742;23.266;2022-11-15T01:03:13;96046.00;;;2.96;100.00
10652;BME280;5374;42.742;23.266;2022-11-15T01:06:00;96025.06;;;2.82;100.00
10652;BME280;5374;42.742;23.266;2022-11-15T01:08:47;96048.81;;;2.95;100.00
10652;BME280;5374;42.742;23.266;2022-11-15T01:11:36;96051.41;;;2.95;100.00
10652;BME280;5374;42.742;23.266;2022-11-15T01:14:23;96050.81;;;2.93;100.00
10652;BME280;5374;42.742;23.266;2022-11-15T01:17:10;96048.81;;;2.95;100.00
10652;BME280;5374;42.742;23.266;2022-11-15T01:19:57;96049.00;;;2.93;100.00
10652;BME280;5374;42.742;23.266;2022-11-15T01:22:45;96032.38;;;2.86;100.00
10652;BME280;5374;42.742;23.266;2022-11-15T01:25:32;96051.38;;;2.88;100.00
10652;BME280;5374;42.742;23.266;2022-11-15T01:28:20;96048.56;;;2.90;100.00
10652;BME280;5374;42.742;23.266;2022-11-15T01:31:13;96053.00;;;2.89;100.00
10652;BME280;5374;42.742;23.266;2022-11-15T01:34:00;96056.00;;;2.86;100.00
10652;BME280;5374;42.742;23.266;2022-11-15T01:36:47;96050.94;;;2.85;100.00
10652;BME280;5374;42.742;23.266;2022-11-15T01:39:34;96049.31;;;2.84;100.00
10652;BME280;5374;42.742;23.266;2022-11-15T01:42:21;96047.31;;;2.86;100.00
10652;BME280;5374;42.742;23.266;2022-11-15T01:45:13;96041.06;;;2.87;100.00
10652;BME280;5374;42.742;23.266;2022-11-15T01:48:01;96038.25;;;2.88;100.00
10652;BME280;5374;42.742;23.266;2022-11-15T01:50:49;96041.06;;;2.87;100.00
10652;BME280;5374;42.742;23.266;2022-11-15T01:53:38;96030.59;;;2.87;100.00
10652;BME280;5374;42.742;23.266;2022-11-15T01:56:29;96036.00;;;2.85;100.00
10652;BME280;5374;42.742;23.266;2022-11-15T01:59:18;96039.25;;;2.87;100.00
10652;BME280;5374;42.742;23.266;2022-11-15T02:02:07;96038.19;;;2.82;100.00
10652;BME280;5374;42.742;23.266;2022-11-15T02:04:55;96036.81;;;2.86;100.00
10652;BME280;5374;42.742;23.266;2022-11-15T02:07:42;96001.53;;;2.67;100.00
10652;BME280;5374;42.742;23.266;2022-11-15T02:10:30;96040.44;;;2.85;100.00
10652;BME280;5374;42.742;23.266;2022-11-15T02:13:17;96028.31;;;2.84;100.00
10652;BME280;5374;42.742;23.266;2022-11-15T02:16:17;96023.78;;;2.71;100.00
10652;BME280;5374;42.742;23.266;2022-11-15T02:19:22;96033.94;;;2.81;100.00
10652;BME280;5374;42.742;23.266;2022-11-15T02:22:22;96035.75;;;2.80;100.00
10652;BME280;5374;42.742;23.266;2022-11-15T02:25:35;96025.44;;;2.79;100.00
10652;BME280;5374;42.742;23.266;2022-11-15T02:28:38;96005.44;;;2.56;100.00
10652;BME280;5374;42.742;23.266;2022-11-15T02:31:36;96030.44;;;2.73;100.00
10652;BME280;5374;42.742;23.266;2022-11-15T02:34:31;96025.78;;;2.69;100.00
10652;BME280;5374;42.742;23.266;2022-11-15T02:37:28;96024.06;;;2.61;100.00
10652;BME280;5374;42.742;23.266;2022-11-15T02:40:23;96030.38;;;2.67;100.00
10652;BME280;5374;42.742;23.266;2022-11-15T02:43:19;96010.44;;;2.51;100.00
10652;BME280;5374;42.742;23.266;2022-11-15T02:46:34;96007.41;;;2.48;100.00
10652;BME280;5374;42.742;23.266;2022-11-15T02:49:45;96025.78;;;2.54;100.00
10652;BME280;5374;42.742;23.266;2022-11-15T02:52:32;96030.03;;;2.55;100.00
10652;BME280;5374;42.742;23.266;2022-11-15T02:55:28;96031.22;;;2.53;100.00
10652;BME280;5374;42.742;23.266;2022-11-15T02:58:38;96035.41;;;2.47;100.00
10652;BME280;5374;42.742;23.266;2022-11-15T03:01:39;96034.50;;;2.40;100.00
10652;BME280;5374;42.742;23.266;2022-11-15T03:04:37;96040.13;;;2.37;100.00
10652;BME280;5374;42.742;23.266;2022-11-15T03:07:34;96042.09;;;2.35;100.00
10652;BME280;5374;42.742;23.266;2022-11-15T03:10:26;96032.00;;;2.32;100.00
10652;BME280;5374;42.742;23.266;2022-11-15T03:13:24;96009.88;;;2.20;100.00
10652;BME280;5374;42.742;23.266;2022-11-15T03:16:17;96027.50;;;2.26;100.00
10652;BME280;5374;42.742;23.266;2022-11-15T03:19:13;96025.88;;;2.25;100.00
10652;BME280;5374;42.742;23.266;2022-11-15T03:22:03;96028.69;;;2.23;100.00
10652;BME280;5374;42.742;23.266;2022-11-15T03:24:54;96025.06;;;2.24;100.00
10652;BME280;5374;42.742;23.266;2022-11-15T03:27:44;96027.22;;;2.21;100.00
10652;BME280;5374;42.742;23.266;2022-11-15T03:30:34;96016.13;;;2.19;100.00
10652;BME280;5374;42.742;23.266;2022-11-15T03:33:24;96022.06;;;2.27;100.00
10652;BME280;5374;42.742;23.266;2022-11-15T03:36:14;96023.50;;;2.30;100.00
10652;BME280;5374;42.742;23.266;2022-11-15T03:39:04;96014.28;;;2.34;100.00
10652;BME280;5374;42.742;23.266;2022-11-15T03:41:57;95999.56;;;2.33;100.00
10652;BME280;5374;42.742;23.266;2022-11-15T03:44:52;96012.56;;;2.41;100.00
10652;BME280;5374;42.742;23.266;2022-11-15T03:47:43;95997.38;;;2.36;100.00
10652;BME280;5374;42.742;23.266;2022-11-15T03:50:33;96009.81;;;2.49;100.00
10652;BME280;5374;42.742;23.266;2022-11-15T03:53:23;96007.44;;;2.54;100.00
10652;BME280;5374;42.742;23.266;2022-11-15T03:56:10;96005.09;;;2.59;100.00
10652;BME280;5374;42.742;23.266;2022-11-15T03:58:57;95998.09;;;2.66;100.00
10652;BME280;5374;42.742;23.266;2022-11-15T04:01:44;95998.34;;;2.71;100.00
10652;BME280;5374;42.742;23.266;2022-11-15T04:04:31;95998.78;;;2.75;100.00
10652;BME280;5374;42.742;23.266;2022-11-15T04:07:18;96000.84;;;2.80;100.00
10652;BME280;5374;42.742;23.266;2022-11-15T04:10:08;96001.09;;;2.85;100.00
10652;BME280;5374;42.742;23.266;2022-11-15T04:12:56;95978.25;;;2.79;100.00
10652;BME280;5374;42.742;23.266;2022-11-15T04:15:44;95988.00;;;2.85;100.00
10652;BME280;5374;42.742;23.266;2022-11-15T04:18:31;95996.34;;;2.95;100.00
10652;BME280;5374;42.742;23.266;2022-11-15T04:21:18;95988.47;;;2.95;100.00
10652;BME280;5374;42.742;23.266;2022-11-15T04:24:22;95991.22;;;3.08;100.00
10652;BME280;5374;42.742;23.266;2022-11-15T04:27:11;95946.84;;;2.85;100.00
10652;BME280;5374;42.742;23.266;2022-11-15T04:30:03;95987.44;;;3.17;100.00
10652;BME280;5374;42.742;23.266;2022-11-15T04:32:50;95980.19;;;3.19;100.00
10652;BME280;5374;42.742;23.266;2022-11-15T04:35:37;95973.72;;;3.15;100.00
10652;BME280;5374;42.742;23.266;2022-11-15T04:38:24;95973.69;;;3.08;100.00
10652;BME280;5374;42.742;23.266;2022-11-15T04:41:11;95985.84;;;3.16;100.00
10652;BME280;5374;42.742;23.266;2022-11-15T04:44:00;95993.72;;;3.16;100.00
10652;BME280;5374;42.742;23.266;2022-11-15T04:46:47;95989.25;;;3.17;100.00
10652;BME280;5374;42.742;23.266;2022-11-15T04:49:34;95967.81;;;3.06;100.00
10652;BME280;5374;42.742;23.266;2022-11-15T04:52:21;95991.28;;;3.15;100.00
10652;BME280;5374;42.742;23.266;2022-11-15T04:55:09;95982.81;;;3.19;100.00
10652;BME280;5374;42.742;23.266;2022-11-15T04:57:58;95992.91;;;3.16;100.00
10652;BME280;5374;42.742;23.266;2022-11-15T05:00:47;95995.38;;;3.24;100.00
10652;BME280;5374;42.742;23.266;2022-11-15T05:03:34;96005.31;;;3.28;100.00
10652;BME280;5374;42.742;23.266;2022-11-15T05:06:41;95996.88;;;3.33;100.00
10652;BME280;5374;42.742;23.266;2022-11-15T05:09:28;96004.19;;;3.37;100.00
10652;BME280;5374;42.742;23.266;2022-11-15T05:12:15;95998.34;;;3.42;100.00
10652;BME280;5374;42.742;23.266;2022-11-15T05:15:03;95972.19;;;3.27;100.00
10652;BME280;5374;42.742;23.266;2022-11-15T05:17:57;95973.00;;;3.28;100.00
10652;BME280;5374;42.742;23.266;2022-11-15T05:20:44;95981.78;;;3.41;100.00
10652;BME280;5374;42.742;23.266;2022-11-15T05:23:31;95984.41;;;3.41;100.00
10652;BME280;5374;42.742;23.266;2022-11-15T05:26:18;95981.59;;;3.43;100.00
10652;BME280;5374;42.742;23.266;2022-11-15T05:29:05;95979.78;;;3.43;100.00
10652;BME280;5374;42.742;23.266;2022-11-15T05:31:53;95974.78;;;3.49;100.00
10652;BME280;5374;42.742;23.266;2022-11-15T05:34:41;95973.16;;;3.48;100.00
10652;BME280;5374;42.742;23.266;2022-11-15T05:37:29;95976.38;;;3.50;100.00
10652;BME280;5374;42.742;23.266;2022-11-15T05:40:16;95965.66;;;3.44;100.00
10652;BME280;5374;42.742;23.266;2022-11-15T05:43:04;95979.88;;;3.57;100.00
10652;BME280;5374;42.742;23.266;2022-11-15T05:45:51;95987.38;;;3.60;100.00
10652;BME280;5374;42.742;23.266;2022-11-15T05:48:41;95988.59;;;3.64;100.00
10652;BME280;5374;42.742;23.266;2022-11-15T05:51:31;95970.00;;;3.59;100.00
10652;BME280;5374;42.742;23.266;2022-11-15T05:54:20;95981.94;;;3.68;100.00
10652;BME280;5374;42.742;23.266;2022-11-15T05:57:08;95998.13;;;3.71;100.00
10652;BME280;5374;42.742;23.266;2022-11-15T05:59:56;95996.56;;;3.77;100.00
10652;BME280;5374;42.742;23.266;2022-11-15T06:02:43;95994.19;;;3.82;100.00
10652;BME280;5374;42.742;23.266;2022-11-15T06:05:30;95997.19;;;3.86;100.00
10652;BME280;5374;42.742;23.266;2022-11-15T06:08:19;95996.44;;;3.92;100.00
10652;BME280;5374;42.742;23.266;2022-11-15T06:11:06;95991.59;;;3.95;100.00
10652;BME280;5374;42.742;23.266;2022-11-15T06:13:53;96001.31;;;3.95;100.00
10652;BME280;5374;42.742;23.266;2022-11-15T06:16:40;95994.03;;;3.97;100.00
10652;BME280;5374;42.742;23.266;2022-11-15T06:19:28;95986.41;;;4.02;100.00
10652;BME280;5374;42.742;23.266;2022-11-15T06:22:18;95995.50;;;4.06;100.00
10652;BME280;5374;42.742;23.266;2022-11-15T06:25:07;95996.53;;;4.11;100.00
10652;BME280;5374;42.742;23.266;2022-11-15T06:27:56;95987.44;;;4.14;100.00
10652;BME280;5374;42.742;23.266;2022-11-15T06:30:44;95988.50;;;4.20;100.00
10652;BME280;5374;42.742;23.266;2022-11-15T06:33:31;95989.72;;;4.24;100.00
10652;BME280;5374;42.742;23.266;2022-11-15T06:36:18;95980.44;;;4.28;100.00
10652;BME280;5374;42.742;23.266;2022-11-15T06:39:06;95985.69;;;4.34;100.00
10652;BME280;5374;42.742;23.266;2022-11-15T06:41:55;95972.13;;;4.31;100.00
10652;BME280;5374;42.742;23.266;2022-11-15T06:44:42;95983.31;;;4.46;100.00
10652;BME280;5374;42.742;23.266;2022-11-15T06:47:29;95989.00;;;4.56;100.00
10652;BME280;5374;42.742;23.266;2022-11-15T06:50:16;95980.50;;;4.54;100.00
10652;BME280;5374;42.742;23.266;2022-11-15T06:53:04;95984.34;;;4.58;100.00
10652;BME280;5374;42.742;23.266;2022-11-15T06:55:51;95980.13;;;4.64;100.00
10652;BME280;5374;42.742;23.266;2022-11-15T06:58:40;95983.59;;;4.71;100.00
10652;BME280;5374;42.742;23.266;2022-11-15T07:01:27;95945.94;;;4.51;100.00
10652;BME280;5374;42.742;23.266;2022-11-15T07:04:15;95976.50;;;4.71;100.00
10652;BME280;5374;42.742;23.266;2022-11-15T07:07:02;95980.97;;;4.84;100.00
10652;BME280;5374;42.742;23.266;2022-11-15T07:09:49;95975.53;;;4.92;100.00
10652;BME280;5374;42.742;23.266;2022-11-15T07:12:36;95983.41;;;4.99;100.00
10652;BME280;5374;42.742;23.266;2022-11-15T07:15:25;95976.94;;;5.08;100.00
10652;BME280;5374;42.742;23.266;2022-11-15T07:18:13;95975.34;;;5.13;100.00
10652;BME280;5374;42.742;23.266;2022-11-15T07:21:01;95975.31;;;5.20;100.00
10652;BME280;5374;42.742;23.266;2022-11-15T07:23:49;95961.59;;;5.18;100.00
10652;BME280;5374;42.742;23.266;2022-11-15T07:26:36;95977.97;;;5.33;100.00
10652;BME280;5374;42.742;23.266;2022-11-15T07:29:23;95954.69;;;5.30;100.00
10652;BME280;5374;42.742;23.266;2022-11-15T07:32:12;95986.47;;;5.48;100.00
10652;BME280;5374;42.742;23.266;2022-11-15T07:34:59;95977.75;;;5.55;100.00
10652;BME280;5374;42.742;23.266;2022-11-15T07:37:53;95977.91;;;5.66;100.00
10652;BME280;5374;42.742;23.266;2022-11-15T07:40:40;95932.41;;;5.33;100.00
10652;BME280;5374;42.742;23.266;2022-11-15T07:43:28;95958.09;;;5.50;100.00
10652;BME280;5374;42.742;23.266;2022-11-15T07:46:16;95976.91;;;5.67;100.00
10652;BME280;5374;42.742;23.266;2022-11-15T07:49:04;95976.50;;;5.77;100.00
10652;BME280;5374;42.742;23.266;2022-11-15T07:51:51;95978.50;;;5.81;100.00
10652;BME280;5374;42.742;23.266;2022-11-15T07:54:39;95969.59;;;5.89;100.00
10652;BME280;5374;42.742;23.266;2022-11-15T07:57:29;95971.00;;;5.98;100.00
10652;BME280;5374;42.742;23.266;2022-11-15T08:00:17;95974.84;;;6.02;100.00
10652;BME280;5374;42.742;23.266;2022-11-15T08:03:06;95976.84;;;6.07;100.00
10652;BME280;5374;42.742;23.266;2022-11-15T08:05:55;95967.53;;;6.04;100.00
10652;BME280;5374;42.742;23.266;2022-11-15T08:08:42;95972.81;;;6.04;100.00
10652;BME280;5374;42.742;23.266;2022-11-15T08:11:29;95958.63;;;5.99;100.00
10652;BME280;5374;42.742;23.266;2022-11-15T08:14:16;95955.16;;;6.05;100.00
10652;BME280;5374;42.742;23.266;2022-11-15T08:17:05;95928.84;;;5.92;100.00
10652;BME280;5374;42.742;23.266;2022-11-15T08:19:52;95961.19;;;6.18;100.00
10652;BME280;5374;42.742;23.266;2022-11-15T08:22:41;95954.53;;;6.09;100.00
10652;BME280;5374;42.742;23.266;2022-11-15T08:25:30;95912.03;;;5.73;100.00
10652;BME280;5374;42.742;23.266;2022-11-15T08:28:18;95958.59;;;6.05;100.00
10652;BME280;5374;42.742;23.266;2022-11-15T08:31:05;95957.75;;;6.18;100.00
10652;BME280;5374;42.742;23.266;2022-11-15T08:33:52;95931.44;;;5.98;100.00
10652;BME280;5374;42.742;23.266;2022-11-15T08:36:40;95950.63;;;6.25;100.00
10652;BME280;5374;42.742;23.266;2022-11-15T08:39:28;95941.47;;;6.28;100.00
10652;BME280;5374;42.742;23.266;2022-11-15T08:42:15;95951.34;;;6.39;100.00
10652;BME280;5374;42.742;23.266;2022-11-15T08:45:03;95970.31;;;6.23;100.00
10652;BME280;5374;42.742;23.266;2022-11-15T08:47:50;95940.03;;;6.32;100.00
10652;BME280;5374;42.742;23.266;2022-11-15T08:50:37;95935.34;;;6.34;100.00
10652;BME280;5374;42.742;23.266;2022-11-15T08:53:25;95937.53;;;6.43;100.00
10652;BME280;5374;42.742;23.266;2022-11-15T08:56:14;95937.91;;;6.54;100.00
10652;BME280;5374;42.742;23.266;2022-11-15T08:59:04;95903.25;;;6.43;100.00
10652;BME280;5374;42.742;23.266;2022-11-15T09:01:52;95931.31;;;6.69;100.00
10652;BME280;5374;42.742;23.266;2022-11-15T09:04:39;95920.84;;;6.81;100.00
10652;BME280;5374;42.742;23.266;2022-11-15T09:07:26;95923.66;;;6.86;100.00
10652;BME280;5374;42.742;23.266;2022-11-15T09:10:17;95922.66;;;6.87;100.00
10652;BME280;5374;42.742;23.266;2022-11-15T09:13:06;95914.88;;;6.67;100.00
10652;BME280;5374;42.742;23.266;2022-11-15T09:15:57;95912.72;;;6.82;100.00
10652;BME280;5374;42.742;23.266;2022-11-15T09:18:44;95909.03;;;6.90;100.00
10652;BME280;5374;42.742;23.266;2022-11-15T09:21:31;95911.44;;;6.92;100.00
10652;BME280;5374;42.742;23.266;2022-11-15T09:24:19;95899.66;;;6.94;100.00
10652;BME280;5374;42.742;23.266;2022-11-15T09:27:06;95891.03;;;7.05;100.00
10652;BME280;5374;42.742;23.266;2022-11-15T09:29:55;95892.59;;;7.13;100.00
10652;BME280;5374;42.742;23.266;2022-11-15T09:32:42;95869.16;;;6.98;100.00
10652;BME280;5374;42.742;23.266;2022-11-15T09:35:31;95880.19;;;7.13;100.00
10652;BME280;5374;42.742;23.266;2022-11-15T09:38:18;95875.00;;;7.25;100.00
10652;BME280;5374;42.742;23.266;2022-11-15T09:41:26;95850.63;;;7.23;100.00
10652;BME280;5374;42.742;23.266;2022-11-15T09:44:41;95867.13;;;7.43;100.00
10652;BME280;5374;42.742;23.266;2022-11-15T09:47:41;95842.50;;;7.25;100.00
10652;BME280;5374;42.742;23.266;2022-11-15T09:50:35;95857.91;;;7.46;100.00
10652;BME280;5374;42.742;23.266;2022-11-15T09:53:26;95863.22;;;7.64;100.00
10652;BME280;5374;42.742;23.266;2022-11-15T09:56:18;95843.34;;;7.43;100.00
10652;BME280;5374;42.742;23.266;2022-11-15T09:59:33;95850.66;;;7.60;100.00
10652;BME280;5374;42.742;23.266;2022-11-15T10:02:42;95816.69;;;7.45;100.00
10652;BME280;5374;42.742;23.266;2022-11-15T10:05:37;95846.34;;;7.65;100.00
10652;BME280;5374;42.742;23.266;2022-11-15T10:08:31;95818.66;;;7.68;100.00
10652;BME280;5374;42.742;23.266;2022-11-15T10:11:23;95834.88;;;7.89;100.00
10652;BME280;5374;42.742;23.266;2022-11-15T10:14:15;95837.78;;;8.00;100.00
10652;BME280;5374;42.742;23.266;2022-11-15T10:17:17;95838.44;;;7.95;100.00
10652;BME280;5374;42.742;23.266;2022-11-15T10:20:15;95826.16;;;8.01;100.00
10652;BME280;5374;42.742;23.266;2022-11-15T10:23:06;95834.47;;;8.04;100.00
10652;BME280;5374;42.742;23.266;2022-11-15T10:25:55;95825.09;;;8.20;100.00
10652;BME280;5374;42.742;23.266;2022-11-15T10:29:12;95814.38;;;8.33;100.00
10652;BME280;5374;42.742;23.266;2022-11-15T10:32:29;95785.47;;;8.32;100.00
10652;BME280;5374;42.742;23.266;2022-11-15T10:35:48;95749.84;;;8.34;100.00
10652;BME280;5374;42.742;23.266;2022-11-15T10:39:16;95675.97;;;7.79;100.00
10652;BME280;5374;42.742;23.266;2022-11-15T10:42:22;95798.34;;;8.93;100.00
10652;BME280;5374;42.742;23.266;2022-11-15T10:45:26;95734.31;;;8.49;100.00
10652;BME280;5374;42.742;23.266;2022-11-15T10:48:24;95778.50;;;8.84;100.00
10652;BME280;5374;42.742;23.266;2022-11-15T10:51:22;95747.34;;;8.74;100.00
10652;BME280;5374;42.742;23.266;2022-11-15T10:54:17;95777.63;;;9.02;100.00
10652;BME280;5374;42.742;23.266;2022-11-15T10:57:17;95776.47;;;8.98;100.00
10652;BME280;5374;42.742;23.266;2022-11-15T11:00:13;95696.66;;;8.59;100.00
10652;BME280;5374;42.742;23.266;2022-11-15T11:03:28;95718.31;;;8.68;100.00
10652;BME280;5374;42.742;23.266;2022-11-15T11:06:16;95670.56;;;8.51;100.00
10652;BME280;5374;42.742;23.266;2022-11-15T11:09:22;95711.41;;;8.55;100.00
10652;BME280;5374;42.742;23.266;2022-11-15T11:12:10;95711.19;;;8.80;100.00
10652;BME280;5374;42.742;23.266;2022-11-15T11:14:59;95746.59;;;9.14;100.00
10652;BME280;5374;42.742;23.266;2022-11-15T11:18:01;95734.63;;;9.23;100.00
10652;BME280;5374;42.742;23.266;2022-11-15T11:20:58;95680.66;;;9.01;100.00
10652;BME280;5374;42.742;23.266;2022-11-15T11:23:52;95716.47;;;9.43;100.00
10652;BME280;5374;42.742;23.266;2022-11-15T11:26:46;95727.50;;;9.52;100.00
10652;BME280;5374;42.742;23.266;2022-11-15T11:29:44;95677.13;;;9.23;100.00
10652;BME280;5374;42.742;23.266;2022-11-15T11:36:24;95653.59;;;9.55;100.00
10652;BME280;5374;42.742;23.266;2022-11-15T11:39:26;95689.47;;;10.03;100.00
10652;BME280;5374;42.742;23.266;2022-11-15T11:42:28;95637.91;;;9.82;100.00
10652;BME280;5374;42.742;23.266;2022-11-15T11:45:21;95704.66;;;10.08;100.00
10652;BME280;5374;42.742;23.266;2022-11-15T11:48:13;95656.81;;;9.86;100.00
10652;BME280;5374;42.742;23.266;2022-11-15T11:51:23;95635.06;;;9.72;100.00
10652;BME280;5374;42.742;23.266;2022-11-15T11:54:25;95594.94;;;9.35;100.00
10652;BME280;5374;42.742;23.266;2022-11-15T11:57:50;95667.09;;;9.99;100.00
10652;BME280;5374;42.742;23.266;2022-11-15T12:00:43;95658.81;;;9.95;100.00
10652;BME280;5374;42.742;23.266;2022-11-15T12:03:41;95624.56;;;9.77;100.00
10652;BME280;5374;42.742;23.266;2022-11-15T12:06:33;95603.34;;;9.77;99.33
10652;BME280;5374;42.742;23.266;2022-11-15T12:09:27;95603.84;;;9.91;98.00
10652;BME280;5374;42.742;23.266;2022-11-15T12:12:21;95631.25;;;10.13;97.41
10652;BME280;5374;42.742;23.266;2022-11-15T12:15:15;95610.59;;;9.82;97.95
10652;BME280;5374;42.742;23.266;2022-11-15T12:18:04;95598.84;;;9.78;98.30
10652;BME280;5374;42.742;23.266;2022-11-15T12:20:54;95622.97;;;9.93;99.45
10652;BME280;5374;42.742;23.266;2022-11-15T12:23:46;95618.63;;;9.87;99.07
10652;BME280;5374;42.742;23.266;2022-11-15T12:26:38;95623.47;;;9.90;98.85
10652;BME280;5374;42.742;23.266;2022-11-15T12:29:32;95593.41;;;9.68;100.00
10652;BME280;5374;42.742;23.266;2022-11-15T12:32:28;95611.72;;;9.69;100.00
10652;BME280;5374;42.742;23.266;2022-11-15T12:35:26;95608.09;;;9.75;100.00
10652;BME280;5374;42.742;23.266;2022-11-15T12:38:53;95597.25;;;9.77;100.00
10652;BME280;5374;42.742;23.266;2022-11-15T12:41:42;95554.00;;;9.43;100.00
10652;BME280;5374;42.742;23.266;2022-11-15T12:44:57;95598.56;;;9.91;99.81
10652;BME280;5374;42.742;23.266;2022-11-15T12:47:46;95583.59;;;9.85;99.83
10652;BME280;5374;42.742;23.266;2022-11-15T12:50:53;95571.66;;;9.54;100.00
10652;BME280;5374;42.742;23.266;2022-11-15T12:53:41;95594.66;;;9.65;100.00
10652;BME280;5374;42.742;23.266;2022-11-15T12:56:28;95599.03;;;9.71;100.00
10652;BME280;5374;42.742;23.266;2022-11-15T12:59:48;95579.38;;;9.55;100.00
10652;BME280;5374;42.742;23.266;2022-11-15T13:02:37;95577.16;;;9.64;100.00
10652;BME280;5374;42.742;23.266;2022-11-15T13:05:53;95575.78;;;9.62;100.00
10652;BME280;5374;42.742;23.266;2022-11-15T13:08:47;95569.59;;;9.56;100.00
10652;BME280;5374;42.742;23.266;2022-11-15T13:11:52;95542.94;;;9.46;100.00
10652;BME280;5374;42.742;23.266;2022-11-15T13:14:44;95562.34;;;9.51;100.00
10652;BME280;5374;42.742;23.266;2022-11-15T13:17:36;95560.19;;;9.48;100.00
10652;BME280;5374;42.742;23.266;2022-11-15T13:20:27;95541.00;;;9.41;100.00
10652;BME280;5374;42.742;23.266;2022-11-15T13:52:43;95543.88;;;9.56;99.88
10652;BME280;5374;42.742;23.266;2022-11-15T14:02:57;95516.47;;;9.34;100.00
10652;BME280;5374;42.742;23.266;2022-11-15T14:57:42;95528.13;;;8.24;100.00
10652;BME280;5374;42.742;23.266;2022-11-15T15:00:30;95492.63;;;7.97;100.00
10652;BME280;5374;42.742;23.266;2022-11-15T15:03:17;95523.78;;;8.18;100.00
10652;BME280;5374;42.742;23.266;2022-11-15T15:06:04;95516.28;;;8.15;100.00
10652;BME280;5374;42.742;23.266;2022-11-15T15:08:52;95495.28;;;7.97;100.00
10652;BME280;5374;42.742;23.266;2022-11-15T15:11:39;95490.38;;;7.89;100.00
10652;BME280;5374;42.742;23.266;2022-11-15T15:14:27;95513.44;;;8.05;100.00
10652;BME280;5374;42.742;23.266;2022-11-15T15:17:14;95514.94;;;8.01;100.00
10652;BME280;5374;42.742;23.266;2022-11-15T15:20:01;95506.44;;;7.99;100.00
10652;BME280;5374;42.742;23.266;2022-11-15T15:22:49;95471.16;;;7.70;100.00
10652;BME280;5374;42.742;23.266;2022-11-15T15:25:36;95516.56;;;7.91;100.00
10652;BME280;5374;42.742;23.266;2022-11-15T15:28:23;95499.19;;;7.95;100.00
10652;BME280;5374;42.742;23.266;2022-11-15T15:31:12;95492.78;;;7.91;100.00
10652;BME280;5374;42.742;23.266;2022-11-15T15:33:59;95490.81;;;7.86;100.00
10652;BME280;5374;42.742;23.266;2022-11-15T15:36:46;95496.34;;;7.84;100.00
10652;BME280;5374;42.742;23.266;2022-11-15T15:39:33;95489.78;;;7.64;100.00
10652;BME280;5374;42.742;23.266;2022-11-15T15:42:21;95502.88;;;7.82;100.00
10652;BME280;5374;42.742;23.266;2022-11-15T15:45:09;95501.72;;;7.78;100.00
10652;BME280;5374;42.742;23.266;2022-11-15T15:47:58;95472.56;;;7.61;100.00
10652;BME280;5374;42.742;23.266;2022-11-15T15:50:45;95446.00;;;7.33;100.00
10652;BME280;5374;42.742;23.266;2022-11-15T15:53:33;95436.59;;;7.37;100.00
10652;BME280;5374;42.742;23.266;2022-11-15T15:56:20;95499.91;;;7.78;100.00
10652;BME280;5374;42.742;23.266;2022-11-15T15:59:10;95466.22;;;7.50;100.00
10652;BME280;5374;42.742;23.266;2022-11-15T16:01:59;95465.16;;;7.28;100.00
10652;BME280;5374;42.742;23.266;2022-11-15T16:04:47;95410.03;;;7.08;100.00
10652;BME280;5374;42.742;23.266;2022-11-15T16:07:35;95486.00;;;7.60;100.00
10652;BME280;5374;42.742;23.266;2022-11-15T16:10:24;95502.06;;;7.70;100.00
10652;BME280;5374;42.742;23.266;2022-11-15T16:13:11;95493.13;;;7.59;100.00
10652;BME280;5374;42.742;23.266;2022-11-15T16:15:58;95464.59;;;7.26;100.00
10652;BME280;5374;42.742;23.266;2022-11-15T16:18:46;95448.03;;;7.07;100.00
10652;BME280;5374;42.742;23.266;2022-11-15T16:21:35;95475.16;;;7.26;100.00
10652;BME280;5374;42.742;23.266;2022-11-15T16:24:23;95435.19;;;6.99;100.00
10652;BME280;5374;42.742;23.266;2022-11-15T16:27:12;95507.34;;;7.35;100.00
10652;BME280;5374;42.742;23.266;2022-11-15T16:30:00;95465.66;;;6.83;100.00
10652;BME280;5374;42.742;23.266;2022-11-15T16:32:47;95430.91;;;6.57;100.00
10652;BME280;5374;42.742;23.266;2022-11-15T16:35:34;95463.94;;;6.77;100.00
10652;BME280;5374;42.742;23.266;2022-11-15T16:38:23;95453.50;;;6.82;100.00
10652;BME280;5374;42.742;23.266;2022-11-15T16:41:11;95443.50;;;6.73;100.00